createdAt,value
2023-05-09T00:00:17.299Z,13.80
2023-05-09T00:01:16.842Z,13.80
2023-05-09T00:02:16.560Z,13.79
2023-05-09T00:03:17.197Z,13.73
2023-05-09T00:04:16.873Z,13.69
2023-05-09T00:05:16.699Z,13.69
2023-05-09T00:06:16.544Z,13.69
2023-05-09T00:07:17.090Z,13.69
2023-05-09T00:08:16.673Z,13.69
2023-05-09T00:09:17.235Z,13.67
2023-05-09T00:10:16.797Z,13.69
2023-05-09T00:11:16.344Z,13.72
2023-05-09T00:12:17.090Z,13.73
2023-05-09T00:13:16.734Z,13.70
2023-05-09T00:14:16.356Z,13.67
2023-05-09T00:15:16.937Z,13.65
2023-05-09T00:16:16.556Z,13.67
2023-05-09T00:17:17.199Z,13.67
2023-05-09T00:18:16.739Z,13.69
2023-05-09T00:19:17.297Z,13.69
2023-05-09T00:20:16.896Z,13.67
2023-05-09T00:21:16.476Z,13.70
2023-05-09T00:22:17.141Z,13.67
2023-05-09T00:23:16.736Z,13.66
2023-05-09T00:24:16.461Z,13.67
2023-05-09T00:25:17.288Z,13.67
2023-05-09T00:26:17.106Z,13.65
2023-05-09T00:27:16.683Z,13.69
2023-05-09T00:28:17.270Z,13.69
2023-05-09T00:29:16.799Z,13.70
2023-05-09T00:30:16.388Z,13.69
2023-05-09T00:31:16.979Z,13.69
2023-05-09T00:32:16.843Z,13.66
2023-05-09T00:33:16.679Z,13.65
2023-05-09T00:34:17.249Z,13.62
2023-05-09T00:35:16.906Z,13.60
2023-05-09T00:36:16.730Z,13.59
2023-05-09T00:37:17.271Z,13.59
2023-05-09T00:38:16.831Z,13.60
2023-05-09T00:39:16.395Z,13.55
2023-05-09T00:40:16.938Z,13.50
2023-05-09T00:41:16.507Z,13.52
2023-05-09T00:42:16.567Z,13.50
2023-05-09T00:43:17.164Z,13.48
2023-05-09T00:44:16.711Z,13.48
2023-05-09T00:45:17.266Z,13.46
2023-05-09T00:46:16.839Z,13.46
2023-05-09T00:47:16.510Z,13.50
2023-05-09T00:48:17.200Z,13.48
2023-05-09T00:49:16.761Z,13.58
2023-05-09T00:50:16.322Z,13.55
2023-05-09T00:51:16.879Z,13.52
2023-05-09T00:52:16.773Z,13.49
2023-05-09T00:53:16.324Z,13.45
2023-05-09T00:54:16.865Z,13.46
2023-05-09T00:55:16.561Z,13.43
2023-05-09T00:56:16.372Z,13.45
2023-05-09T00:57:16.927Z,13.43
2023-05-09T00:58:16.462Z,13.43
2023-05-09T00:59:17.573Z,13.42
2023-05-09T01:00:17.136Z,13.46
2023-05-09T01:01:16.732Z,13.45
2023-05-09T01:02:16.686Z,13.42
2023-05-09T01:03:17.372Z,13.42
2023-05-09T01:04:17.175Z,13.41
2023-05-09T01:05:16.959Z,13.35
2023-05-09T01:06:16.846Z,13.31
2023-05-09T01:07:16.421Z,13.32
2023-05-09T01:08:16.966Z,13.31
2023-05-09T01:09:16.558Z,13.32
2023-05-09T01:10:17.117Z,13.32
2023-05-09T01:11:16.648Z,13.31
2023-05-09T01:12:16.355Z,13.34
2023-05-09T01:13:16.924Z,13.34
2023-05-09T01:14:16.558Z,13.37
2023-05-09T01:15:17.097Z,13.35
2023-05-09T01:16:16.678Z,13.35
2023-05-09T01:17:16.377Z,13.32
2023-05-09T01:18:16.906Z,13.35
2023-05-09T01:19:16.456Z,13.38
2023-05-09T01:20:17.001Z,13.35
2023-05-09T01:21:16.560Z,13.35
2023-05-09T01:22:17.166Z,13.32
2023-05-09T01:23:16.723Z,13.31
2023-05-09T01:24:17.292Z,13.28
2023-05-09T01:25:16.909Z,13.24
2023-05-09T01:26:16.557Z,13.18
2023-05-09T01:27:17.093Z,13.18
2023-05-09T01:28:16.626Z,13.21
2023-05-09T01:29:17.236Z,13.18
2023-05-09T01:30:16.827Z,13.18
2023-05-09T01:31:16.411Z,13.18
2023-05-09T01:32:16.990Z,13.20
2023-05-09T01:33:16.556Z,13.22
2023-05-09T01:34:17.146Z,13.24
2023-05-09T01:35:16.968Z,13.21
2023-05-09T01:36:16.723Z,13.21
2023-05-09T01:37:16.375Z,13.21
2023-05-09T01:38:16.949Z,13.21
2023-05-09T01:39:16.573Z,13.21
2023-05-09T01:40:17.129Z,13.22
2023-05-09T01:41:16.697Z,13.24
2023-05-09T01:42:16.955Z,13.24
2023-05-09T01:43:16.510Z,13.25
2023-05-09T01:44:17.103Z,13.25
2023-05-09T01:45:17.015Z,13.24
2023-05-09T01:46:17.180Z,13.25
2023-05-09T01:47:16.830Z,13.22
2023-05-09T01:48:16.386Z,13.24
2023-05-09T01:49:16.961Z,13.20
2023-05-09T01:50:16.525Z,13.20
2023-05-09T01:51:17.091Z,13.18
2023-05-09T01:52:16.964Z,13.18
2023-05-09T01:53:16.496Z,13.13
2023-05-09T01:54:17.037Z,13.13
2023-05-09T01:55:16.649Z,13.13
2023-05-09T01:56:16.443Z,13.13
2023-05-09T01:57:17.001Z,13.13
2023-05-09T01:58:16.567Z,13.14
2023-05-09T01:59:17.115Z,13.11
2023-05-09T02:00:16.673Z,13.14
2023-05-09T02:01:17.351Z,13.08
2023-05-09T02:02:16.443Z,13.11
2023-05-09T02:03:17.170Z,13.08
2023-05-09T02:04:16.849Z,13.10
2023-05-09T02:05:16.695Z,13.07
2023-05-09T02:06:16.586Z,13.08
2023-05-09T02:07:17.103Z,13.07
2023-05-09T02:08:16.660Z,13.07
2023-05-09T02:09:17.212Z,13.08
2023-05-09T02:10:16.759Z,13.06
2023-05-09T02:11:17.299Z,13.06
2023-05-09T02:12:16.909Z,13.03
2023-05-09T02:13:16.499Z,13.04
2023-05-09T02:14:17.125Z,13.02
2023-05-09T02:15:16.759Z,13.03
2023-05-09T02:16:16.433Z,13.02
2023-05-09T02:17:17.059Z,13.02
2023-05-09T02:18:16.655Z,12.99
2023-05-09T02:19:17.231Z,12.96
2023-05-09T02:20:16.849Z,12.97
2023-05-09T02:21:16.388Z,12.93
2023-05-09T02:22:16.445Z,12.96
2023-05-09T02:23:16.988Z,12.97
2023-05-09T02:24:16.515Z,12.90
2023-05-09T02:25:17.179Z,12.92
2023-05-09T02:26:17.020Z,12.92
2023-05-09T02:27:16.554Z,12.94
2023-05-09T02:28:17.089Z,12.92
2023-05-09T02:29:16.661Z,12.93
2023-05-09T02:30:17.239Z,12.94
2023-05-09T02:31:16.810Z,12.93
2023-05-09T02:32:16.659Z,12.90
2023-05-09T02:33:16.306Z,12.94
2023-05-09T02:34:16.899Z,12.90
2023-05-09T02:35:16.587Z,12.94
2023-05-09T02:36:17.307Z,12.93
2023-05-09T02:37:16.838Z,12.94
2023-05-09T02:38:16.379Z,12.93
2023-05-09T02:39:16.947Z,12.90
2023-05-09T02:40:16.498Z,12.92
2023-05-09T02:41:17.060Z,12.92
2023-05-09T02:42:16.900Z,12.90
2023-05-09T02:43:16.463Z,12.90
2023-05-09T02:44:17.034Z,12.88
2023-05-09T02:45:16.691Z,12.92
2023-05-09T02:46:16.489Z,12.88
2023-05-09T02:47:17.150Z,12.90
2023-05-09T02:48:16.737Z,12.93
2023-05-09T02:49:31.286Z,12.90
2023-05-09T02:50:16.876Z,12.92
2023-05-09T02:51:16.454Z,12.92
2023-05-09T02:52:16.508Z,12.93
2023-05-09T02:53:17.106Z,12.90
2023-05-09T02:54:16.652Z,12.87
2023-05-09T02:55:17.484Z,12.87
2023-05-09T02:56:17.244Z,12.87
2023-05-09T02:57:16.828Z,12.87
2023-05-09T02:58:16.530Z,12.84
2023-05-09T02:59:17.120Z,12.86
2023-05-09T03:00:16.671Z,12.87
2023-05-09T03:01:17.284Z,12.84
2023-05-09T03:02:16.446Z,12.87
2023-05-09T03:03:17.132Z,12.86
2023-05-09T03:04:16.845Z,12.84
2023-05-09T03:05:16.586Z,12.86
2023-05-09T03:06:16.340Z,12.86
2023-05-09T03:07:16.913Z,12.84
2023-05-09T03:08:16.451Z,12.84
2023-05-09T03:09:16.975Z,12.86
2023-05-09T03:10:16.524Z,12.86
2023-05-09T03:11:17.094Z,12.87
2023-05-09T03:12:17.185Z,12.83
2023-05-09T03:13:16.789Z,12.84
2023-05-09T03:14:16.473Z,12.84
2023-05-09T03:15:17.013Z,12.86
2023-05-09T03:16:16.603Z,12.84
2023-05-09T03:17:17.257Z,12.84
2023-05-09T03:18:16.784Z,12.83
2023-05-09T03:19:16.300Z,12.84
2023-05-09T03:20:16.867Z,12.83
2023-05-09T03:21:16.445Z,12.83
2023-05-09T03:22:16.314Z,12.82
2023-05-09T03:23:16.861Z,12.79
2023-05-09T03:24:16.442Z,12.82
2023-05-09T03:25:17.183Z,12.76
2023-05-09T03:26:17.194Z,12.73
2023-05-09T03:27:16.798Z,12.72
2023-05-09T03:28:16.354Z,12.73
2023-05-09T03:29:16.929Z,12.75
2023-05-09T03:30:16.501Z,12.77
2023-05-09T03:31:17.062Z,12.79
2023-05-09T03:32:16.828Z,12.72
2023-05-09T03:33:16.363Z,12.69
2023-05-09T03:34:16.913Z,12.69
2023-05-09T03:35:16.601Z,12.68
2023-05-09T03:36:16.654Z,12.69
2023-05-09T03:37:17.193Z,12.69
2023-05-09T03:38:16.745Z,12.68
2023-05-09T03:39:16.326Z,12.66
2023-05-09T03:40:16.893Z,12.66
2023-05-09T03:41:16.452Z,12.65
2023-05-09T03:42:16.523Z,12.63
2023-05-09T03:43:17.094Z,12.63
2023-05-09T03:44:16.636Z,12.59
2023-05-09T03:45:17.243Z,12.60
2023-05-09T03:46:16.796Z,12.59
2023-05-09T03:47:16.451Z,12.58
2023-05-09T03:48:17.012Z,12.55
2023-05-09T03:49:16.552Z,12.53
2023-05-09T03:50:17.117Z,12.53
2023-05-09T03:51:16.651Z,12.53
2023-05-09T03:52:16.776Z,12.53
2023-05-09T03:53:16.380Z,12.52
2023-05-09T03:54:16.935Z,12.52
2023-05-09T03:55:16.663Z,12.51
2023-05-09T03:56:16.361Z,12.49
2023-05-09T03:57:16.919Z,12.47
2023-05-09T03:58:16.525Z,12.49
2023-05-09T03:59:17.108Z,12.51
2023-05-09T04:00:16.652Z,12.51
2023-05-09T04:01:17.183Z,12.51
2023-05-09T04:02:17.100Z,12.51
2023-05-09T04:03:16.816Z,12.51
2023-05-09T04:04:16.567Z,12.51
2023-05-09T04:05:17.552Z,12.51
2023-05-09T04:06:16.392Z,12.51
2023-05-09T04:07:16.997Z,12.51
2023-05-09T04:08:16.536Z,12.56
2023-05-09T04:09:17.138Z,12.59
2023-05-09T04:10:16.688Z,12.59
2023-05-09T04:11:17.253Z,12.62
2023-05-09T04:12:17.242Z,12.63
2023-05-09T04:13:16.868Z,12.63
2023-05-09T04:14:16.493Z,12.66
2023-05-09T04:15:17.099Z,12.69
2023-05-09T04:16:16.825Z,12.70
2023-05-09T04:17:16.518Z,12.73
2023-05-09T04:18:17.129Z,12.75
2023-05-09T04:19:16.722Z,12.75
2023-05-09T04:20:17.368Z,12.77
2023-05-09T04:21:16.922Z,12.82
2023-05-09T04:22:16.837Z,12.84
2023-05-09T04:23:16.393Z,12.82
2023-05-09T04:24:16.937Z,12.83
2023-05-09T04:25:16.669Z,12.86
2023-05-09T04:26:16.605Z,12.90
2023-05-09T04:27:17.137Z,12.88
2023-05-09T04:28:16.777Z,12.94
2023-05-09T04:29:16.318Z,12.96
2023-05-09T04:30:16.863Z,13.02
2023-05-09T04:31:16.553Z,13.08
2023-05-09T04:32:17.219Z,13.02
2023-05-09T04:33:16.954Z,12.99
2023-05-09T04:34:16.533Z,13.00
2023-05-09T04:35:18.880Z,13.00
2023-05-09T04:36:16.524Z,12.93
2023-05-09T04:37:17.067Z,13.00
2023-05-09T04:38:16.622Z,13.02
2023-05-09T04:39:17.159Z,13.06
2023-05-09T04:40:16.717Z,12.97
2023-05-09T04:41:17.260Z,12.97
2023-05-09T04:42:16.429Z,13.00
2023-05-09T04:43:16.983Z,13.04
2023-05-09T04:44:16.548Z,13.20
2023-05-09T04:45:17.239Z,13.18
2023-05-09T04:46:17.149Z,13.18
2023-05-09T04:47:16.790Z,13.18
2023-05-09T04:48:16.334Z,13.21
2023-05-09T04:49:16.885Z,13.22
2023-05-09T04:50:16.439Z,13.17
2023-05-09T04:51:17.030Z,13.21
2023-05-09T04:52:17.039Z,13.18
2023-05-09T04:53:16.694Z,13.17
2023-05-09T04:54:17.217Z,13.10
2023-05-09T04:55:16.894Z,13.02
2023-05-09T04:56:16.748Z,13.02
2023-05-09T04:57:18.743Z,13.04
2023-05-09T04:58:16.659Z,13.08
2023-05-09T04:59:17.211Z,13.06
2023-05-09T05:00:16.803Z,13.03
2023-05-09T05:01:16.411Z,13.06
2023-05-09T05:02:16.370Z,13.03
2023-05-09T05:03:16.930Z,13.06
2023-05-09T05:04:16.558Z,12.96
2023-05-09T05:05:17.282Z,12.93
2023-05-09T05:06:17.039Z,13.03
2023-05-09T05:07:16.567Z,13.07
2023-05-09T05:08:17.144Z,13.13
2023-05-09T05:09:16.719Z,13.07
2023-05-09T05:10:17.260Z,13.07
2023-05-09T05:11:16.839Z,13.10
2023-05-09T05:12:17.316Z,13.10
2023-05-09T05:13:16.943Z,13.15
2023-05-09T05:14:16.639Z,13.22
2023-05-09T05:15:17.261Z,13.27
2023-05-09T05:16:16.987Z,13.24
2023-05-09T05:17:16.624Z,13.22
2023-05-09T05:18:17.225Z,13.25
2023-05-09T05:19:16.837Z,13.35
2023-05-09T05:20:16.382Z,13.45
2023-05-09T05:21:16.948Z,13.50
2023-05-09T05:22:16.627Z,13.52
2023-05-09T05:23:17.164Z,13.67
2023-05-09T05:24:16.705Z,13.67
2023-05-09T05:25:17.763Z,13.66
2023-05-09T05:26:16.397Z,13.69
2023-05-09T05:27:16.923Z,13.79
2023-05-09T05:28:16.507Z,13.89
2023-05-09T05:29:17.093Z,13.93
2023-05-09T05:30:16.651Z,14.01
2023-05-09T05:31:17.336Z,14.08
2023-05-09T05:32:16.650Z,14.12
2023-05-09T05:33:17.237Z,14.14
2023-05-09T05:34:16.828Z,14.11
2023-05-09T05:35:16.578Z,14.21
2023-05-09T05:36:16.554Z,14.27
2023-05-09T05:37:17.106Z,14.46
2023-05-09T05:38:16.639Z,14.45
2023-05-09T05:39:17.174Z,14.43
2023-05-09T05:40:16.731Z,14.43
2023-05-09T05:41:17.278Z,14.52
2023-05-09T05:42:17.049Z,14.67
2023-05-09T05:43:16.621Z,14.67
2023-05-09T05:44:17.181Z,14.69
2023-05-09T05:45:16.931Z,14.84
2023-05-09T05:46:16.853Z,14.88
2023-05-09T05:47:16.482Z,14.91
2023-05-09T05:48:16.912Z,14.87
2023-05-09T05:49:16.453Z,14.95
2023-05-09T05:50:17.020Z,15.32
2023-05-09T05:51:16.576Z,15.52
2023-05-09T05:52:16.411Z,15.87
2023-05-09T05:53:16.962Z,15.98
2023-05-09T05:54:16.498Z,16.12
2023-05-09T05:55:17.119Z,16.18
2023-05-09T05:56:16.917Z,16.02
2023-05-09T05:57:16.477Z,16.18
2023-05-09T05:58:17.034Z,16.45
2023-05-09T05:59:16.567Z,16.18
2023-05-09T06:00:17.114Z,16.24
2023-05-09T06:01:16.712Z,16.36
2023-05-09T06:02:17.040Z,16.39
2023-05-09T06:03:16.697Z,16.28
2023-05-09T06:04:16.548Z,16.26
2023-05-09T06:05:17.285Z,16.47
2023-05-09T06:06:16.915Z,16.64
2023-05-09T06:07:16.458Z,16.67
2023-05-09T06:08:16.988Z,16.62
2023-05-09T06:09:16.587Z,16.39
2023-05-09T06:10:17.193Z,16.29
2023-05-09T06:11:16.750Z,16.07
2023-05-09T06:12:16.781Z,15.80
2023-05-09T06:13:16.411Z,15.85
2023-05-09T06:14:17.143Z,15.67
2023-05-09T06:15:16.925Z,15.45
2023-05-09T06:16:19.790Z,15.62
2023-05-09T06:17:18.018Z,15.73
2023-05-09T06:18:16.625Z,16.00
2023-05-09T06:19:17.195Z,16.21
2023-05-09T06:20:16.739Z,16.26
2023-05-09T06:21:17.262Z,16.49
2023-05-09T06:22:16.376Z,16.73
2023-05-09T06:23:17.123Z,16.67
2023-05-09T06:24:23.783Z,15.77
2023-05-09T06:25:16.819Z,15.92
2023-05-09T06:26:16.647Z,15.98
2023-05-09T06:27:17.193Z,16.02
2023-05-09T06:28:16.777Z,16.12
2023-05-09T06:29:16.387Z,15.77
2023-05-09T06:30:25.240Z,15.97
2023-05-09T06:31:16.635Z,16.14
2023-05-09T06:32:17.183Z,16.12
2023-05-09T06:33:16.734Z,16.01
2023-05-09T06:34:17.261Z,15.81
2023-05-09T06:35:16.963Z,16.19
2023-05-09T06:36:16.581Z,16.25
2023-05-09T06:37:17.161Z,16.54
2023-05-09T06:38:16.724Z,17.23
2023-05-09T06:39:17.267Z,17.23
2023-05-09T06:40:17.139Z,17.91
2023-05-09T06:41:16.806Z,18.39
2023-05-09T06:42:17.289Z,18.70
2023-05-09T06:43:16.872Z,18.78
2023-05-09T06:44:16.414Z,19.07
2023-05-09T06:45:17.326Z,19.01
2023-05-09T06:46:16.629Z,19.40
2023-05-09T06:47:17.227Z,19.40
2023-05-09T06:48:16.801Z,19.48
2023-05-09T06:49:16.360Z,19.50
2023-05-09T06:50:16.912Z,19.78
2023-05-09T06:51:16.510Z,20.08
2023-05-09T06:52:16.679Z,20.08
2023-05-09T06:53:17.245Z,20.05
2023-05-09T06:54:16.810Z,19.82
2023-05-09T06:55:16.493Z,19.71
2023-05-09T06:56:17.885Z,20.16
2023-05-09T06:57:16.482Z,19.61
2023-05-09T06:58:17.080Z,19.61
2023-05-09T06:59:16.711Z,19.12
2023-05-09T07:00:17.265Z,19.33
2023-05-09T07:01:16.821Z,19.23
2023-05-09T07:02:17.126Z,17.78
2023-05-09T07:03:16.703Z,18.74
2023-05-09T07:04:17.282Z,19.26
2023-05-09T07:05:17.045Z,18.74
2023-05-09T07:06:17.074Z,17.54
2023-05-09T07:07:16.633Z,17.15
2023-05-09T07:08:17.193Z,17.46
2023-05-09T07:09:16.739Z,18.29
2023-05-09T07:10:17.302Z,18.67
2023-05-09T07:11:16.839Z,19.05
2023-05-09T07:12:16.755Z,19.14
2023-05-09T07:13:17.315Z,18.79
2023-05-09T07:14:16.918Z,18.64
2023-05-09T07:15:22.875Z,17.95
2023-05-09T07:16:16.949Z,17.16
2023-05-09T07:17:23.165Z,16.98
2023-05-09T07:18:16.754Z,16.97
2023-05-09T07:19:17.293Z,17.42
2023-05-09T07:20:16.870Z,17.57
2023-05-09T07:21:16.473Z,17.58
2023-05-09T07:22:16.421Z,18.23
2023-05-09T07:23:17.003Z,19.34
2023-05-09T07:24:16.573Z,19.29
2023-05-09T07:25:17.340Z,20.09
2023-05-09T07:26:17.011Z,20.29
2023-05-09T07:27:16.579Z,20.52
2023-05-09T07:28:17.103Z,20.99
2023-05-09T07:29:16.701Z,21.27
2023-05-09T07:30:17.414Z,21.23
2023-05-09T07:31:17.147Z,21.60
2023-05-09T07:32:17.258Z,21.62
2023-05-09T07:33:16.905Z,21.85
2023-05-09T07:34:16.487Z,22.27
2023-05-09T07:35:17.193Z,21.14
2023-05-09T07:36:16.781Z,20.82
2023-05-09T07:37:16.459Z,21.65
2023-05-09T07:38:17.090Z,22.38
2023-05-09T07:39:16.671Z,23.19
2023-05-09T07:40:17.452Z,22.79
2023-05-09T07:41:16.683Z,23.19
2023-05-09T07:42:16.535Z,23.78
2023-05-09T07:43:17.104Z,23.84
2023-05-09T07:44:16.673Z,23.84
2023-05-09T07:45:17.908Z,21.02
2023-05-09T07:46:16.363Z,20.91
2023-05-09T07:47:17.065Z,21.55
2023-05-09T07:48:16.739Z,20.75
2023-05-09T07:49:17.269Z,20.78
2023-05-09T07:50:16.819Z,20.95
2023-05-09T07:51:16.425Z,21.86
2023-05-09T07:52:16.511Z,22.00
2023-05-09T07:53:16.353Z,22.26
2023-05-09T07:54:16.923Z,22.82
2023-05-09T07:55:16.650Z,23.19
2023-05-09T07:56:16.734Z,23.07
2023-05-09T07:57:17.281Z,22.96
2023-05-09T07:58:16.841Z,23.02
2023-05-09T07:59:16.379Z,23.33
2023-05-09T08:00:16.951Z,24.02
2023-05-09T08:01:16.541Z,24.04
2023-05-09T08:02:16.446Z,24.31
2023-05-09T08:03:17.361Z,22.88
2023-05-09T08:04:17.184Z,23.24
2023-05-09T08:05:17.066Z,23.69
2023-05-09T08:06:17.121Z,22.30
2023-05-09T08:07:16.799Z,21.96
2023-05-09T08:08:16.384Z,21.50
2023-05-09T08:09:16.924Z,22.26
2023-05-09T08:10:16.478Z,21.96
2023-05-09T08:11:17.045Z,22.75
2023-05-09T08:12:16.555Z,23.59
2023-05-09T08:13:17.127Z,24.02
2023-05-09T08:14:16.764Z,23.72
2023-05-09T08:15:16.538Z,24.68
2023-05-09T08:16:16.832Z,24.72
2023-05-09T08:17:16.487Z,24.52
2023-05-09T08:18:17.041Z,24.72
2023-05-09T08:19:16.620Z,25.65
2023-05-09T08:20:17.196Z,24.59
2023-05-09T08:21:16.786Z,24.68
2023-05-09T08:22:16.536Z,25.14
2023-05-09T08:23:17.081Z,25.73
2023-05-09T08:24:16.633Z,25.60
2023-05-09T08:25:17.342Z,25.42
2023-05-09T08:26:17.115Z,24.58
2023-05-09T08:27:16.655Z,24.78
2023-05-09T08:28:17.804Z,25.64
2023-05-09T08:29:16.613Z,24.37
2023-05-09T08:30:17.318Z,23.69
2023-05-09T08:31:16.963Z,23.92
2023-05-09T08:32:17.272Z,25.21
2023-05-09T08:33:16.842Z,25.03
2023-05-09T08:34:16.465Z,24.59
2023-05-09T08:35:17.396Z,24.90
2023-05-09T08:36:17.244Z,24.98
2023-05-09T08:37:16.804Z,25.64
2023-05-09T08:38:16.339Z,25.95
2023-05-09T08:39:16.905Z,25.73
2023-05-09T08:40:16.620Z,25.73
2023-05-09T08:41:16.789Z,26.37
2023-05-09T08:42:17.267Z,26.55
2023-05-09T08:43:16.888Z,25.57
2023-05-09T08:44:16.431Z,25.10
2023-05-09T08:45:17.024Z,24.95
2023-05-09T08:46:16.585Z,25.80
2023-05-09T08:47:17.213Z,25.55
2023-05-09T08:48:16.756Z,25.55
2023-05-09T08:49:16.351Z,25.02
2023-05-09T08:50:17.127Z,24.90
2023-05-09T08:51:17.230Z,24.17
2023-05-09T08:52:16.834Z,22.33
2023-05-09T08:53:16.383Z,22.61
2023-05-09T08:54:16.925Z,23.65
2023-05-09T08:55:16.469Z,23.05
2023-05-09T08:56:17.081Z,22.76
2023-05-09T08:57:16.697Z,23.84
2023-05-09T08:58:17.246Z,23.30
2023-05-09T08:59:16.845Z,22.80
2023-05-09T09:00:18.786Z,22.96
2023-05-09T09:01:16.618Z,23.30
2023-05-09T09:02:17.019Z,24.10
2023-05-09T09:03:16.565Z,24.95
2023-05-09T09:04:17.159Z,25.27
2023-05-09T09:05:34.580Z,25.65
2023-05-09T09:06:17.075Z,25.68
2023-05-09T09:07:16.643Z,25.75
2023-05-09T09:08:17.191Z,24.79
2023-05-09T09:09:16.753Z,24.62
2023-05-09T09:10:16.568Z,25.16
2023-05-09T09:11:16.428Z,25.17
2023-05-09T09:12:16.890Z,25.71
2023-05-09T09:13:16.577Z,25.97
2023-05-09T09:14:16.420Z,25.89
2023-05-09T09:15:17.014Z,25.86
2023-05-09T09:16:16.621Z,26.85
2023-05-09T09:17:17.261Z,27.35
2023-05-09T09:18:16.812Z,27.49
2023-05-09T09:19:16.363Z,26.82
2023-05-09T09:20:17.073Z,25.23
2023-05-09T09:21:16.997Z,26.26
2023-05-09T09:22:16.971Z,25.76
2023-05-09T09:23:16.586Z,25.03
2023-05-09T09:24:17.153Z,26.01
2023-05-09T09:25:16.718Z,25.52
2023-05-09T09:26:17.273Z,26.13
2023-05-09T09:27:16.844Z,26.72
2023-05-09T09:28:16.431Z,26.75
2023-05-09T09:29:17.022Z,24.86
2023-05-09T09:30:16.792Z,25.75
2023-05-09T09:31:17.190Z,26.90
2023-05-09T09:32:17.007Z,26.68
2023-05-09T09:33:16.782Z,27.75
2023-05-09T09:34:16.337Z,27.68
2023-05-09T09:35:16.918Z,28.00
2023-05-09T09:36:16.476Z,27.52
2023-05-09T09:37:17.025Z,26.79
2023-05-09T09:38:16.566Z,27.18
2023-05-09T09:39:17.112Z,27.13
2023-05-09T09:40:16.865Z,27.34
2023-05-09T09:41:16.758Z,26.62
2023-05-09T09:42:16.470Z,27.00
2023-05-09T09:43:17.055Z,27.25
2023-05-09T09:44:16.616Z,27.83
2023-05-09T09:45:17.184Z,28.51
2023-05-09T09:46:16.785Z,28.62
2023-05-09T09:47:16.535Z,27.89
2023-05-09T09:48:17.135Z,27.49
2023-05-09T09:49:16.723Z,28.61
2023-05-09T09:50:17.456Z,27.69
2023-05-09T09:51:16.542Z,27.17
2023-05-09T09:52:17.125Z,26.24
2023-05-09T09:53:16.686Z,25.13
2023-05-09T09:54:17.280Z,25.49
2023-05-09T09:55:16.859Z,26.20
2023-05-09T09:56:16.424Z,26.47
2023-05-09T09:57:17.026Z,25.68
2023-05-09T09:58:16.585Z,25.13
2023-05-09T09:59:17.179Z,25.93
2023-05-09T10:00:17.041Z,26.47
2023-05-09T10:01:17.279Z,25.99
2023-05-09T10:02:16.462Z,26.59
2023-05-09T10:03:17.154Z,26.31
2023-05-09T10:04:17.078Z,27.25
2023-05-09T10:05:16.786Z,27.75
2023-05-09T10:06:16.359Z,27.75
2023-05-09T10:07:16.959Z,26.75
2023-05-09T10:08:16.514Z,26.48
2023-05-09T10:09:17.077Z,26.13
2023-05-09T10:10:16.861Z,25.76
2023-05-09T10:11:16.937Z,26.44
2023-05-09T10:12:17.130Z,25.85
2023-05-09T10:13:16.706Z,24.58
2023-05-09T10:14:16.329Z,25.58
2023-05-09T10:15:16.879Z,25.40
2023-05-09T10:16:17.061Z,25.90
2023-05-09T10:17:17.234Z,27.32
2023-05-09T10:18:17.084Z,27.41
2023-05-09T10:19:16.895Z,27.92
2023-05-09T10:20:16.595Z,27.06
2023-05-09T10:21:16.536Z,26.41
2023-05-09T10:22:17.100Z,26.79
2023-05-09T10:23:16.676Z,27.49
2023-05-09T10:24:17.257Z,27.09
2023-05-09T10:25:17.018Z,26.69
2023-05-09T10:26:16.909Z,25.16
2023-05-09T10:27:16.456Z,26.58
2023-05-09T10:28:17.000Z,26.26
2023-05-09T10:29:16.538Z,24.69
2023-05-09T10:30:17.103Z,25.05
2023-05-09T10:31:16.709Z,25.07
2023-05-09T10:32:17.177Z,24.30
2023-05-09T10:33:16.749Z,26.06
2023-05-09T10:34:16.341Z,25.26
2023-05-09T10:35:17.080Z,23.68
2023-05-09T10:36:17.119Z,24.92
2023-05-09T10:37:16.691Z,24.83
2023-05-09T10:38:17.264Z,25.55
2023-05-09T10:39:16.786Z,25.51
2023-05-09T10:40:17.427Z,24.54
2023-05-09T10:41:17.062Z,24.85
2023-05-09T10:42:16.702Z,25.55
2023-05-09T10:43:17.233Z,25.89
2023-05-09T10:44:16.781Z,26.20
2023-05-09T10:45:16.538Z,26.40
2023-05-09T10:46:16.741Z,26.54
2023-05-09T10:47:16.403Z,27.55
2023-05-09T10:48:17.001Z,27.75
2023-05-09T10:49:16.562Z,27.94
2023-05-09T10:50:17.119Z,26.35
2023-05-09T10:51:16.726Z,26.56
2023-05-09T10:52:16.420Z,24.06
2023-05-09T10:53:17.133Z,23.20
2023-05-09T10:54:16.777Z,23.99
2023-05-09T10:55:16.429Z,23.23
2023-05-09T10:56:16.523Z,23.62
2023-05-09T10:57:17.068Z,23.89
2023-05-09T10:58:16.630Z,23.84
2023-05-09T10:59:17.198Z,23.82
2023-05-09T11:00:16.776Z,24.92
2023-05-09T11:01:16.454Z,25.13
2023-05-09T11:02:17.107Z,25.06
2023-05-09T11:03:16.684Z,25.31
2023-05-09T11:04:17.323Z,24.34
2023-05-09T11:05:17.081Z,22.95
2023-05-09T11:06:16.869Z,23.64
2023-05-09T11:07:16.425Z,24.65
2023-05-09T11:08:16.954Z,24.44
2023-05-09T11:09:16.500Z,24.85
2023-05-09T11:10:17.124Z,23.37
2023-05-09T11:11:16.702Z,23.48
2023-05-09T11:12:16.347Z,24.12
2023-05-09T11:13:16.901Z,23.61
2023-05-09T11:14:16.542Z,23.51
2023-05-09T11:15:17.153Z,23.27
2023-05-09T11:16:16.813Z,23.14
2023-05-09T11:17:16.458Z,22.90
2023-05-09T11:18:17.180Z,22.09
2023-05-09T11:19:16.467Z,23.33
2023-05-09T11:20:17.034Z,23.75
2023-05-09T11:21:16.652Z,23.26
2023-05-09T11:22:16.454Z,23.37
2023-05-09T11:23:17.023Z,24.12
2023-05-09T11:24:16.744Z,24.14
2023-05-09T11:25:17.535Z,24.69
2023-05-09T11:26:16.585Z,24.30
2023-05-09T11:27:17.124Z,24.30
2023-05-09T11:28:16.670Z,24.59
2023-05-09T11:29:17.270Z,24.72
2023-05-09T11:30:16.936Z,24.24
2023-05-09T11:31:16.669Z,24.74
2023-05-09T11:32:17.188Z,24.79
2023-05-09T11:33:16.863Z,24.96
2023-05-09T11:34:16.463Z,25.21
2023-05-09T11:35:17.271Z,24.44
2023-05-09T11:36:16.586Z,24.57
2023-05-09T11:37:17.166Z,24.37
2023-05-09T11:38:16.735Z,24.82
2023-05-09T11:39:17.285Z,24.37
2023-05-09T11:40:16.813Z,23.64
2023-05-09T11:41:16.406Z,23.95
2023-05-09T11:42:16.399Z,23.93
2023-05-09T11:43:17.114Z,23.72
2023-05-09T11:44:16.678Z,23.78
2023-05-09T11:45:17.445Z,23.58
2023-05-09T11:46:16.517Z,23.68
2023-05-09T11:47:17.098Z,23.45
2023-05-09T11:48:16.618Z,23.05
2023-05-09T11:49:17.227Z,23.09
2023-05-09T11:50:16.813Z,22.65
2023-05-09T11:51:16.587Z,22.86
2023-05-09T11:52:16.324Z,22.88
2023-05-09T11:53:16.928Z,22.75
2023-05-09T11:54:16.517Z,22.83
2023-05-09T11:55:17.388Z,22.76
2023-05-09T11:56:16.689Z,22.09
2023-05-09T11:57:17.305Z,22.03
2023-05-09T11:58:16.929Z,22.12
2023-05-09T11:59:16.477Z,22.09
2023-05-09T12:00:17.078Z,22.07
2023-05-09T12:01:16.632Z,22.10
2023-05-09T12:02:17.018Z,22.09
2023-05-09T12:03:16.869Z,22.15
2023-05-09T12:04:16.700Z,22.10
2023-05-09T12:05:17.535Z,22.15
2023-05-09T12:06:16.434Z,22.03
2023-05-09T12:07:17.000Z,21.99
2023-05-09T12:08:16.596Z,22.00
2023-05-09T12:09:17.168Z,21.99
2023-05-09T12:10:16.763Z,21.85
2023-05-09T12:11:16.389Z,21.78
2023-05-09T12:12:17.269Z,21.61
2023-05-09T12:13:16.833Z,21.62
2023-05-09T12:14:16.467Z,21.60
2023-05-09T12:15:17.469Z,21.47
2023-05-09T12:16:16.953Z,21.54
2023-05-09T12:17:16.658Z,21.54
2023-05-09T12:18:17.214Z,21.57
2023-05-09T12:19:16.792Z,21.57
2023-05-09T12:20:16.421Z,21.44
2023-05-09T12:21:17.061Z,21.37
2023-05-09T12:22:16.567Z,21.29
2023-05-09T12:23:17.131Z,21.09
2023-05-09T12:24:16.694Z,21.07
2023-05-09T12:25:17.511Z,21.26
2023-05-09T12:26:16.486Z,21.36
2023-05-09T12:27:17.057Z,21.19
2023-05-09T12:28:16.852Z,21.09
2023-05-09T12:29:16.500Z,21.20
2023-05-09T12:30:17.051Z,21.17
2023-05-09T12:31:16.612Z,21.34
2023-05-09T12:32:16.408Z,21.30
2023-05-09T12:33:16.965Z,21.34
2023-05-09T12:34:16.521Z,21.40
2023-05-09T12:35:17.226Z,21.47
2023-05-09T12:36:16.996Z,21.50
2023-05-09T12:37:16.611Z,21.53
2023-05-09T12:38:17.160Z,21.61
2023-05-09T12:39:16.730Z,21.69
2023-05-09T12:40:17.312Z,21.69
2023-05-09T12:41:30.223Z,21.78
2023-05-09T12:42:16.303Z,21.83
2023-05-09T12:43:16.887Z,21.75
2023-05-09T12:44:16.437Z,21.79
2023-05-09T12:45:17.306Z,21.76
2023-05-09T12:46:16.437Z,21.71
2023-05-09T12:47:17.130Z,21.66
2023-05-09T12:48:16.733Z,21.66
2023-05-09T12:49:17.270Z,21.65
2023-05-09T12:50:16.823Z,21.61
2023-05-09T12:51:16.374Z,21.65
2023-05-09T12:52:17.148Z,21.53